METAR* REPORTS - Stations within 60 miles

(*Meteorological Terminal Aviation Routine weather report)

 

KRDG - Reading, Pennsylvania, USA
Distance from station: SE 19mi, 31km
Updated: Tue, 19-Sep-2017 9:54pm EDT
Partly Cloudy
Partly Cloudy
 Wind from NE
Wind: NE 5 mph , 7 km/h
Temperature: 75°F , 24°C
Dew Point: 63°F , 17°C
Humidity: 65%
Barometer: 29.93 inHg , 1013.5 hPa
Clouds: Partly Cloudy
Visibility: 10 miles , 16 km
Cloud details: Partly Cloudy 7000 ft
2017/09/20 01:54 KRDG 200154Z AUTO 04004KT 10SM SCT070 24/17 A2993 RMK AO2 SLP136 T02390172 $
KLNS - Lancaster, Pennsylvania, USA
Distance from station: S 33mi, 53km
Updated: Tue, 19-Sep-2017 9:53pm EDT
Overcast
Overcast
 Wind from N
Wind: N 6 mph , 9 km/h
Temperature: 72°F , 22°C
Dew Point: 66°F , 19°C
Humidity: 83%
Barometer: 29.93 inHg , 1013.5 hPa
Clouds: Overcast
Visibility: 10 miles , 16 km
Cloud details: Mostly Cloudy 7000 ft
Overcast 8000 ft
2017/09/20 01:53 KLNS 200153Z 36005KT 10SM BKN070 OVC080 22/19 A2993 RMK AO2 SLP134 T02220194
 
KSEG - Selinsgrove, Pennsylvania, USA
Distance from station: WNW 39mi, 62km
Updated: Tue, 19-Sep-2017 9:53pm EDT
Mist, Clear
Mist, Clear
 Wind from calm
Wind: Calm
Temperature: 61°F , 16°C
Dew Point: 61°F , 16°C
Humidity: 100%
Barometer: 29.97 inHg , 1014.9 hPa
Summary: Mist
Clouds: Clear
Visibility: 6 miles , 10 km
2017/09/20 01:53 KSEG 200153Z AUTO 00000KT 6SM BR CLR 16/16 A2997 RMK AO2 SLP146 T01610161
KABE - Allentown, Pennsylvania, USA
Distance from station: E 39mi, 63km
Updated: Tue, 19-Sep-2017 9:51pm EDT
Overcast
Overcast
 Wind from NE
Wind: NE 10 mph , 17 km/h
Temperature: 73°F , 23°C
Dew Point: 63°F , 17°C
Humidity: 69%
Barometer: 29.94 inHg , 1013.9 hPa
Clouds: Overcast
Visibility: 10 miles , 16 km
Cloud details: Mostly Cloudy 8000 ft
Overcast 10000 ft
2017/09/20 01:51 KABE 200151Z 05009KT 10SM BKN080 OVC100 23/17 A2994 RMK AO2 SLP134 T02330167
 
KMDT - Middletown, Pennsylvania, USA
Distance from station: SW 40mi, 65km
Updated: Tue, 19-Sep-2017 9:56pm EDT
Few Clouds
Few Clouds
 Wind from N
Wind: N 3 mph , 6 km/h
Temperature: 70°F , 21°C
Dew Point: 64°F , 18°C
Humidity: 83%
Barometer: 29.93 inHg , 1013.5 hPa
Clouds: Few Clouds
Visibility: 10 miles , 16 km
Cloud details: Few Clouds 20000 ft
2017/09/20 01:56 KMDT 200156Z 35003KT 10SM FEW200 21/18 A2993 RMK AO2 SLP133 T02110183
KPTW - Pottstown, Pennsylvania, USA
Distance from station: SE 42mi, 67km
Updated: Tue, 19-Sep-2017 9:54pm EDT
Overcast
Overcast
 Wind from NE
Wind: NE 12 mph , 19 km/h
Temperature: 73°F , 23°C
Dew Point: 63°F , 17°C
Humidity: 69%
Barometer: 29.94 inHg , 1013.9 hPa
Clouds: Overcast
Visibility: 10 miles , 16 km
Cloud details: Overcast 6000 ft
2017/09/20 01:54 KPTW 200154Z AUTO 04010KT 10SM OVC060 23/17 A2994 RMK AO2 SLP132 T02280172
 
KCXY - Harrisburg, Pennsylvania, USA
Distance from station: SW 43mi, 69km
Updated: Tue, 19-Sep-2017 9:56pm EDT
Clear
Clear
 Wind from WSW
Wind: WSW 5 mph , 7 km/h
Temperature: 66°F , 19°C
Dew Point: 63°F , 17°C
Humidity: 88%
Barometer: 29.94 inHg , 1013.9 hPa
Clouds: Clear
Visibility: 10 miles , 16 km
2017/09/20 01:56 KCXY 200156Z AUTO 24004KT 10SM CLR 19/17 A2994 RMK AO2 SLP136 T01940167
KUKT - Quakertown Arp, Pennsylvania, USA
Distance from station: ESE 44mi, 70km
Updated: Tue, 19-Sep-2017 9:55pm EDT
Mostly Cloudy
Mostly Cloudy
 Wind from NE
Wind: NE 8 mph , 13 km/h, Gust: 17 mph , 28 km/h
Temperature: 70°F , 21°C
Dew Point: 66°F , 19°C
Humidity: 88%
Barometer: 29.95 inHg , 1014.2 hPa
Clouds: Mostly Cloudy
Visibility: 5 miles , 8 km
Cloud details: Few Clouds 1900 ft
Partly Cloudy 4200 ft
Mostly Cloudy 4800 ft
2017/09/20 01:55 KUKT 200155Z AUTO 04007G15KT 5SM FEW019 SCT042 BKN048 21/19 A2995 RMK AO1
 
KMQS - Coatesville, Pennsylvania, USA
Distance from station: SSE 45mi, 72km
Updated: Tue, 19-Sep-2017 9:35pm EDT
Few Clouds
Few Clouds
 Wind from N
Wind: N 9 mph , 15 km/h, Gust: 15 mph , 24 km/h
Temperature: 73°F , 23°C
Dew Point: 63°F , 17°C
Humidity: 69%
Barometer: 29.94 inHg , 1013.9 hPa
Clouds: Few Clouds
Visibility: 10 miles , 16 km
Cloud details: Few Clouds 6000 ft
2017/09/20 01:35 KMQS 200135Z AUTO 36008G13KT 10SM FEW060 23/17 A2994 RMK AO2
KMPO - Mt. Pocono, Pennsylvania, USA
Distance from station: NE 57mi, 92km
Updated: Tue, 19-Sep-2017 9:53pm EDT
Few Clouds
Few Clouds
 Wind from NE
Wind: NE 9 mph , 15 km/h
Temperature: 68°F , 20°C
Dew Point: 57°F , 14°C
Humidity: 69%
Barometer: 30.01 inHg , 1016.3 hPa
Clouds: Few Clouds
Visibility: 10 miles , 16 km
Cloud details: Few Clouds 9000 ft
2017/09/20 01:53 KMPO 200153Z AUTO 05008KT 10SM FEW090 20/14 A3001 RMK AO2 SLP153 T02000144
 
KAVP - Avoca/Wilkes B., Pennsylvania, USA
Distance from station: NNE 58mi, 93km
Updated: Tue, 19-Sep-2017 9:54pm EDT
Few Clouds
Few Clouds
 Wind from E
Wind: E 3 mph , 6 km/h
Temperature: 68°F , 20°C
Dew Point: 61°F , 16°C
Humidity: 78%
Barometer: 29.98 inHg , 1015.2 hPa
Clouds: Few Clouds
Visibility: 10 miles , 16 km
Cloud details: Few Clouds 11000 ft
2017/09/20 01:54 KAVP 200154Z 08003KT 10SM FEW110 20/16 A2998 RMK AO2 SLP145 T02000161
KTHV - York, Pennsylvania, USA
Distance from station: SW 59mi, 94km
Updated: Tue, 19-Sep-2017 9:53pm EDT
Clear
Clear
 Wind from calm
Wind: Calm
Temperature: 64°F , 18°C
Dew Point: 63°F , 17°C
Humidity: 94%
Barometer: 29.94 inHg , 1013.9 hPa
Clouds: Clear
Visibility: 10 miles , 16 km
2017/09/20 01:53 KTHV 200153Z AUTO 00000KT 10SM CLR 18/17 A2994 RMK AO2 SLP138 T01780172
 
KDYL - Doylestown, Pennsylvania, USA
Distance from station: ESE 59mi, 95km
Updated: Tue, 19-Sep-2017 10:54am EDT
NOT Current
Mostly Cloudy
Mostly Cloudy
 Wind from NNE
Wind: NNE 12 mph , 19 km/h
Temperature: 77°F , 25°C
Dew Point: 68°F , 20°C
Humidity: 74%
Barometer: 29.99 inHg , 1015.6 hPa
Clouds: Mostly Cloudy
Visibility: 10 miles , 16 km
Cloud details: Mostly Cloudy 1900 ft
2017/09/19 14:54 KDYL 191454Z AUTO 02010KT 10SM BKN019 25/20 A2999 RMK AO2 SLP150 T02500200 58009
KIPT - Williamsport, Pennsylvania, USA
Distance from station: NW 60mi, 96km
Updated: Tue, 19-Sep-2017 9:54pm EDT
Clear
Clear
 Wind from NNW
Wind: NNW 3 mph , 6 km/h
Temperature: 66°F , 19°C
Dew Point: 64°F , 18°C
Humidity: 94%
Barometer: 29.97 inHg , 1014.9 hPa
Clouds: Clear
Visibility: 10 miles , 16 km
2017/09/20 01:54 KIPT 200154Z 33003KT 10SM CLR 19/18 A2997 RMK AO2 SLP145 T01940178